createdAt,value
2022-10-28T00:02:43.196Z,11.83
2022-10-28T00:05:45.013Z,11.77
2022-10-28T00:08:46.525Z,11.75
2022-10-28T00:11:47.998Z,11.79
2022-10-28T00:14:49.496Z,11.78
2022-10-28T00:17:51.179Z,11.80
2022-10-28T00:20:52.857Z,11.83
2022-10-28T00:23:54.616Z,11.84
2022-10-28T00:26:56.122Z,11.81
2022-10-28T00:29:57.608Z,11.79
2022-10-28T00:32:59.117Z,11.80
2022-10-28T00:36:07.582Z,11.77
2022-10-28T00:39:15.222Z,11.73
2022-10-28T00:42:18.430Z,11.68
2022-10-28T00:45:19.936Z,11.69
2022-10-28T00:48:21.423Z,11.63
2022-10-28T00:51:23.140Z,11.60
2022-10-28T00:54:24.653Z,11.55
2022-10-28T00:57:27.734Z,11.49
2022-10-28T01:00:29.310Z,11.48
2022-10-28T01:03:30.881Z,11.55
2022-10-28T01:06:32.378Z,11.58
2022-10-28T01:09:33.890Z,11.57
2022-10-28T01:12:37.517Z,11.56
2022-10-28T01:15:48.392Z,11.54
2022-10-28T01:18:56.918Z,11.59
2022-10-28T01:21:58.482Z,11.63
2022-10-28T01:24:59.989Z,11.61
2022-10-28T01:28:34.099Z,11.57
2022-10-28T01:31:41.952Z,11.64
2022-10-28T01:35:03.751Z,11.68
2022-10-28T01:38:14.447Z,11.66
2022-10-28T01:41:33.831Z,11.69
2022-10-28T01:44:44.030Z,11.79
2022-10-28T01:47:47.738Z,11.85
2022-10-28T01:51:04.574Z,11.89
2022-10-28T01:54:06.576Z,12.03
2022-10-28T01:57:08.056Z,12.04
2022-10-28T02:00:09.861Z,12.05
2022-10-28T02:03:14.271Z,12.10
2022-10-28T02:06:16.755Z,12.11
2022-10-28T02:09:20.710Z,12.18
2022-10-28T02:12:35.161Z,12.20
2022-10-28T02:15:36.635Z,12.19
2022-10-28T02:18:49.166Z,12.21
2022-10-28T02:22:09.078Z,12.16
2022-10-28T02:25:15.328Z,12.08
2022-10-28T02:28:18.346Z,12.01
2022-10-28T02:31:24.545Z,11.99
2022-10-28T02:34:27.490Z,11.96
2022-10-28T02:37:30.270Z,11.96
2022-10-28T02:40:31.773Z,11.93
2022-10-28T02:43:33.695Z,11.86
2022-10-28T02:46:35.414Z,11.84
2022-10-28T02:49:37.516Z,11.77
2022-10-28T02:52:39.050Z,11.73
2022-10-28T02:55:41.953Z,11.70
2022-10-28T02:58:43.465Z,11.66
2022-10-28T03:01:45.133Z,11.66
2022-10-28T03:04:46.757Z,11.68
2022-10-28T03:07:48.302Z,11.63
2022-10-28T03:10:49.823Z,11.62
2022-10-28T03:13:51.344Z,11.60
2022-10-28T03:16:52.858Z,11.62
2022-10-28T03:19:54.438Z,11.61
2022-10-28T03:22:56.259Z,11.64
2022-10-28T03:25:58.088Z,11.65
2022-10-28T03:28:59.644Z,11.69
2022-10-28T03:32:01.258Z,11.71
2022-10-28T03:35:02.780Z,11.74
2022-10-28T03:38:04.380Z,11.76
2022-10-28T03:41:05.973Z,11.78
2022-10-28T03:44:07.527Z,11.80
2022-10-28T03:47:09.189Z,11.77
2022-10-28T03:50:10.846Z,11.77
2022-10-28T03:53:12.377Z,11.77
2022-10-28T03:56:13.900Z,11.76
2022-10-28T03:59:19.203Z,11.75
2022-10-28T04:02:21.909Z,11.76
2022-10-28T04:05:23.473Z,11.75
2022-10-28T04:08:24.991Z,11.76
2022-10-28T04:11:26.508Z,11.76
2022-10-28T04:14:28.004Z,11.76
2022-10-28T04:17:29.612Z,11.76
2022-10-28T04:20:31.231Z,11.75
2022-10-28T04:23:32.720Z,11.76
2022-10-28T04:26:34.214Z,11.76
2022-10-28T04:29:36.186Z,11.75
2022-10-28T04:32:37.735Z,11.75
2022-10-28T04:35:42.743Z,11.73
2022-10-28T04:38:44.567Z,11.73
2022-10-28T04:41:46.121Z,11.72
2022-10-28T04:44:47.608Z,11.72
2022-10-28T04:47:49.088Z,11.68
2022-10-28T04:50:51.030Z,11.67
2022-10-28T04:53:52.551Z,11.67
2022-10-28T04:56:54.395Z,11.66
2022-10-28T04:59:55.897Z,11.70
2022-10-28T05:02:57.884Z,11.68
2022-10-28T05:05:59.682Z,11.70
2022-10-28T05:09:01.176Z,11.70
2022-10-28T05:12:02.721Z,11.71
2022-10-28T05:15:04.403Z,11.72
2022-10-28T05:18:05.973Z,11.73
2022-10-28T05:21:07.539Z,11.74
2022-10-28T05:24:09.088Z,11.77
2022-10-28T05:27:10.646Z,11.77
2022-10-28T05:30:12.651Z,11.79
2022-10-28T05:33:14.183Z,11.78
2022-10-28T05:36:15.681Z,11.78
2022-10-28T05:39:17.777Z,11.80
2022-10-28T05:42:19.292Z,11.78
2022-10-28T05:45:20.901Z,11.80
2022-10-28T05:48:22.499Z,11.82
2022-10-28T05:51:24.048Z,11.83
2022-10-28T05:54:25.638Z,11.83
2022-10-28T05:57:27.138Z,11.83
2022-10-28T06:00:28.993Z,11.82
2022-10-28T06:03:31.371Z,11.83
2022-10-28T06:06:33.088Z,11.85
2022-10-28T06:09:34.676Z,11.85
2022-10-28T06:12:34.820Z,11.87
2022-10-28T06:15:36.383Z,11.89
2022-10-28T06:18:37.924Z,11.91
2022-10-28T06:21:39.647Z,11.91
2022-10-28T06:24:41.188Z,11.90
2022-10-28T06:27:42.843Z,11.89
2022-10-28T06:30:44.393Z,11.91
2022-10-28T06:33:45.978Z,11.93
2022-10-28T06:36:47.512Z,11.92
2022-10-28T06:39:51.519Z,11.94
2022-10-28T06:42:59.084Z,11.96
2022-10-28T06:46:04.401Z,11.98
2022-10-28T06:49:09.153Z,11.97
2022-10-28T06:52:10.727Z,11.96
2022-10-28T06:55:12.294Z,11.98
2022-10-28T06:58:13.858Z,11.98
2022-10-28T07:01:15.437Z,12.00
2022-10-28T07:04:17.044Z,11.99
2022-10-28T07:07:19.632Z,12.01
2022-10-28T07:10:21.206Z,12.03
2022-10-28T07:13:23.131Z,12.01
2022-10-28T07:16:24.735Z,12.03
2022-10-28T07:19:26.246Z,12.04
2022-10-28T07:22:27.816Z,12.07
2022-10-28T07:25:30.499Z,12.09
2022-10-28T07:28:32.065Z,12.10
2022-10-28T07:31:33.616Z,12.12
2022-10-28T07:34:35.167Z,12.13
2022-10-28T07:37:38.248Z,12.13
2022-10-28T07:40:39.890Z,12.15
2022-10-28T07:43:41.440Z,12.17
2022-10-28T07:46:43.041Z,12.20
2022-10-28T07:49:44.574Z,12.23
2022-10-28T07:52:46.250Z,12.23
2022-10-28T07:55:57.533Z,12.23
2022-10-28T07:59:00.123Z,12.26
2022-10-28T08:02:01.694Z,12.26
2022-10-28T08:05:03.524Z,12.28
2022-10-28T08:08:05.148Z,12.29
2022-10-28T08:11:13.392Z,12.30
2022-10-28T08:14:14.936Z,12.29
2022-10-28T08:17:16.798Z,12.29
2022-10-28T08:20:18.561Z,12.29
2022-10-28T08:23:20.140Z,12.31
2022-10-28T08:26:21.868Z,12.31
2022-10-28T08:29:28.994Z,12.31
2022-10-28T08:32:31.601Z,12.35
2022-10-28T08:35:35.713Z,12.37
2022-10-28T08:38:40.518Z,12.35
2022-10-28T08:41:45.283Z,12.39
2022-10-28T08:44:54.017Z,12.41
2022-10-28T08:51:09.567Z,12.47
2022-10-28T08:54:13.529Z,12.47
2022-10-28T08:57:18.061Z,12.50
2022-10-28T09:00:23.898Z,12.55
2022-10-28T09:03:26.193Z,12.57
2022-10-28T09:06:27.743Z,12.57
2022-10-28T09:09:29.297Z,12.59
2022-10-28T09:12:46.341Z,12.68
2022-10-28T09:16:00.157Z,12.80
2022-10-28T09:19:24.972Z,12.85
2022-10-28T09:22:32.595Z,12.90
2022-10-28T09:25:53.822Z,12.97
2022-10-28T09:28:59.181Z,13.06
2022-10-28T09:32:26.632Z,13.18
2022-10-28T09:35:28.694Z,13.15
2022-10-28T09:38:31.830Z,13.06
2022-10-28T09:41:39.263Z,13.22
2022-10-28T09:44:40.883Z,13.39
2022-10-28T09:47:43.898Z,13.42
2022-10-28T09:50:45.436Z,13.40
2022-10-28T09:53:47.024Z,13.39
2022-10-28T09:56:48.579Z,13.32
2022-10-28T09:59:50.838Z,13.36
2022-10-28T10:02:53.611Z,13.15
2022-10-28T10:05:56.303Z,12.93
2022-10-28T10:08:57.911Z,12.65
2022-10-28T10:12:10.013Z,12.49
2022-10-28T10:15:14.292Z,12.38
2022-10-28T10:18:16.711Z,12.32
2022-10-28T10:21:21.186Z,12.29
2022-10-28T10:24:25.925Z,12.18
2022-10-28T10:27:27.725Z,12.16
2022-10-28T10:30:32.254Z,12.13
2022-10-28T10:33:36.020Z,12.14
2022-10-28T10:36:37.802Z,12.17
2022-10-28T10:39:39.929Z,12.15
2022-10-28T10:42:51.670Z,12.16
2022-10-28T10:46:03.308Z,12.30
2022-10-28T10:49:14.183Z,12.37
2022-10-28T10:52:17.689Z,12.46
2022-10-28T10:55:21.370Z,12.60
2022-10-28T10:58:27.089Z,12.93
2022-10-28T11:01:29.482Z,13.39
2022-10-28T11:04:31.131Z,13.05
2022-10-28T11:07:32.920Z,12.84
2022-10-28T11:10:35.334Z,12.74
2022-10-28T11:13:36.882Z,12.70
2022-10-28T11:16:47.397Z,12.92
2022-10-28T11:19:49.017Z,13.09
2022-10-28T11:22:57.370Z,13.24
2022-10-28T11:26:00.165Z,13.82
2022-10-28T11:29:11.787Z,13.89
2022-10-28T11:32:33.565Z,14.02
2022-10-28T11:35:43.639Z,14.17
2022-10-28T11:38:52.451Z,14.38
2022-10-28T11:41:54.068Z,14.35
2022-10-28T11:44:58.959Z,14.51
2022-10-28T11:48:23.943Z,14.56
2022-10-28T11:51:54.869Z,14.25
2022-10-28T11:55:25.904Z,14.08
2022-10-28T11:58:27.464Z,14.25
2022-10-28T12:01:40.090Z,14.06
2022-10-28T12:04:49.871Z,13.96
2022-10-28T12:08:01.129Z,13.73
2022-10-28T12:11:12.113Z,13.27
2022-10-28T12:14:16.976Z,13.30
2022-10-28T12:17:18.495Z,13.04
2022-10-28T12:20:30.934Z,13.52
2022-10-28T12:23:33.509Z,13.82
2022-10-28T12:26:42.472Z,13.99
2022-10-28T12:29:44.436Z,13.93
2022-10-28T12:32:45.984Z,14.25
2022-10-28T12:35:48.926Z,13.86
2022-10-28T12:38:56.725Z,13.81
2022-10-28T12:42:19.342Z,13.96
2022-10-28T12:45:20.895Z,14.01
2022-10-28T12:48:26.726Z,14.05
2022-10-28T12:51:33.309Z,14.21
2022-10-28T12:54:37.945Z,14.06
2022-10-28T12:57:46.177Z,14.18
2022-10-28T13:00:49.387Z,13.96
2022-10-28T13:03:51.401Z,13.87
2022-10-28T13:07:11.599Z,14.02
2022-10-28T13:13:37.006Z,14.17
2022-10-28T13:16:53.758Z,14.13
2022-10-28T13:19:55.261Z,14.07
2022-10-28T13:23:06.060Z,14.29
2022-10-28T13:26:26.280Z,14.29
2022-10-28T13:29:29.068Z,14.54
2022-10-28T13:32:38.840Z,14.17
2022-10-28T13:35:40.779Z,13.95
2022-10-28T13:38:42.338Z,13.92
2022-10-28T13:41:47.928Z,13.36
2022-10-28T13:44:51.779Z,13.36
2022-10-28T13:47:53.320Z,12.83
2022-10-28T13:51:10.063Z,12.07
2022-10-28T13:54:23.472Z,12.00
2022-10-28T13:57:26.412Z,11.93
2022-10-28T14:03:34.773Z,12.01
2022-10-28T14:06:36.424Z,11.89
2022-10-28T14:09:38.336Z,11.91
2022-10-28T14:12:40.795Z,12.09
2022-10-28T14:15:42.351Z,12.29
2022-10-28T14:18:51.473Z,12.30
2022-10-28T14:22:03.330Z,12.25
2022-10-28T14:25:25.587Z,12.26
2022-10-28T14:28:27.273Z,12.26
2022-10-28T14:31:37.687Z,12.23
2022-10-28T14:34:39.760Z,12.25
2022-10-28T14:37:44.408Z,12.27
2022-10-28T14:40:45.960Z,12.42
2022-10-28T14:43:50.165Z,12.39
2022-10-28T14:47:10.601Z,12.41
2022-10-28T14:50:30.962Z,12.30
2022-10-28T14:53:33.759Z,12.39
2022-10-28T14:56:35.334Z,12.50
2022-10-28T14:59:37.828Z,12.44
2022-10-28T15:02:39.471Z,12.51
2022-10-28T15:05:41.105Z,12.52
2022-10-28T15:08:42.653Z,12.57
2022-10-28T15:11:45.732Z,12.54
2022-10-28T15:14:52.178Z,12.59
2022-10-28T15:17:53.815Z,12.54
2022-10-28T15:21:15.603Z,12.61
2022-10-28T15:24:17.152Z,12.57
2022-10-28T15:27:18.693Z,12.67
2022-10-28T15:30:24.107Z,12.69
2022-10-28T15:33:29.927Z,12.64
2022-10-28T15:36:31.495Z,12.51
2022-10-28T15:39:33.254Z,12.57
2022-10-28T15:42:39.231Z,12.57
2022-10-28T15:45:42.703Z,12.54
2022-10-28T15:48:44.514Z,12.58
2022-10-28T15:51:53.675Z,12.93
2022-10-28T15:54:56.322Z,12.84
2022-10-28T15:57:59.016Z,12.62
2022-10-28T16:01:00.725Z,12.48
2022-10-28T16:04:02.408Z,12.37
2022-10-28T16:07:07.636Z,12.32
2022-10-28T16:10:14.385Z,12.30
2022-10-28T16:13:19.303Z,12.30
2022-10-28T16:16:24.842Z,12.44
2022-10-28T16:19:29.858Z,12.44
2022-10-28T16:22:31.551Z,12.36
2022-10-28T16:25:33.132Z,12.27
2022-10-28T16:28:35.429Z,12.24
2022-10-28T16:31:37.127Z,12.26
2022-10-28T16:34:38.792Z,12.26
2022-10-28T16:37:44.487Z,12.33
2022-10-28T16:40:52.087Z,12.25
2022-10-28T16:43:55.837Z,12.13
2022-10-28T16:46:57.588Z,12.10
2022-10-28T16:49:59.160Z,12.26
2022-10-28T16:53:04.322Z,12.28
2022-10-28T16:56:09.831Z,12.16
2022-10-28T16:59:15.645Z,12.01
2022-10-28T17:02:17.314Z,11.88
2022-10-28T17:05:19.971Z,11.79
2022-10-28T17:08:36.425Z,11.73
2022-10-28T17:11:43.275Z,11.71
2022-10-28T17:14:44.883Z,11.64
2022-10-28T17:17:50.921Z,11.57
2022-10-28T17:21:02.085Z,11.50
2022-10-28T17:24:04.197Z,11.51
2022-10-28T17:27:07.929Z,11.48
2022-10-28T17:30:09.947Z,11.43
2022-10-28T17:33:11.618Z,11.40
2022-10-28T17:36:13.190Z,11.36
2022-10-28T17:39:18.592Z,11.25
2022-10-28T17:42:22.452Z,11.12
2022-10-28T17:45:24.028Z,11.07
2022-10-28T17:48:25.585Z,11.05
2022-10-28T17:51:27.582Z,11.01
2022-10-28T17:54:29.147Z,10.99
2022-10-28T17:57:30.733Z,11.03
2022-10-28T18:00:32.367Z,11.05
2022-10-28T18:03:38.278Z,11.02
2022-10-28T18:06:40.224Z,11.02
2022-10-28T18:09:42.424Z,11.05
2022-10-28T18:12:44.109Z,11.01
2022-10-28T18:15:45.843Z,10.90
2022-10-28T18:18:47.667Z,10.84
2022-10-28T18:21:49.455Z,10.79
2022-10-28T18:24:51.060Z,10.79
2022-10-28T18:27:52.612Z,10.80
2022-10-28T18:30:54.199Z,10.79
2022-10-28T18:33:56.658Z,10.81
2022-10-28T18:36:58.272Z,10.79
2022-10-28T18:39:59.858Z,10.80
2022-10-28T18:43:01.475Z,10.88
2022-10-28T18:46:03.125Z,10.95
2022-10-28T18:49:05.512Z,10.98
2022-10-28T18:52:07.151Z,11.01
2022-10-28T18:55:08.914Z,11.01
2022-10-28T18:58:14.277Z,10.95
2022-10-28T19:01:16.740Z,10.86
2022-10-28T19:04:18.443Z,10.78
2022-10-28T19:07:20.704Z,10.67
2022-10-28T19:10:22.505Z,10.61
2022-10-28T19:13:24.339Z,10.51
2022-10-28T19:16:26.540Z,10.44
2022-10-28T19:19:28.178Z,10.34
2022-10-28T19:22:29.805Z,10.30
2022-10-28T19:25:31.457Z,10.22
2022-10-28T19:28:39.712Z,10.16
2022-10-28T19:31:43.783Z,10.12
2022-10-28T19:34:45.736Z,10.08
2022-10-28T19:37:47.371Z,10.00
2022-10-28T19:40:48.910Z,10.12
2022-10-28T19:43:58.464Z,10.18
2022-10-28T19:47:00.614Z,10.15
2022-10-28T19:50:02.334Z,10.18
2022-10-28T19:53:03.936Z,10.17
2022-10-28T19:56:06.006Z,10.17
2022-10-28T19:59:07.673Z,10.16
2022-10-28T20:02:10.401Z,10.19
2022-10-28T20:05:12.232Z,10.21
2022-10-28T20:08:14.366Z,10.07
2022-10-28T20:11:20.045Z,9.95
2022-10-28T20:14:24.748Z,9.90
2022-10-28T20:17:26.384Z,9.76
2022-10-28T20:20:28.012Z,9.66
2022-10-28T20:23:29.632Z,9.63
2022-10-28T20:26:31.852Z,9.64
2022-10-28T20:29:33.435Z,9.58
2022-10-28T20:32:36.408Z,9.50
2022-10-28T20:35:38.068Z,9.46
2022-10-28T20:38:39.668Z,9.45
2022-10-28T20:41:41.733Z,9.51
2022-10-28T20:44:43.433Z,9.62
2022-10-28T20:47:45.026Z,9.75
2022-10-28T20:51:04.514Z,9.81
2022-10-28T20:54:06.205Z,9.93
2022-10-28T20:57:07.820Z,10.02
2022-10-28T21:00:09.674Z,10.10
2022-10-28T21:03:11.554Z,10.16
2022-10-28T21:09:20.274Z,10.06
2022-10-28T21:12:21.847Z,10.02
2022-10-28T21:15:23.419Z,10.01
2022-10-28T21:18:25.072Z,10.11
2022-10-28T21:21:27.005Z,10.11
2022-10-28T21:24:28.584Z,10.06
2022-10-28T21:27:30.244Z,10.00
2022-10-28T21:30:31.997Z,9.99
2022-10-28T21:33:34.576Z,9.93
2022-10-28T21:36:36.297Z,9.93
2022-10-28T21:39:39.805Z,9.92
2022-10-28T21:42:41.438Z,9.89
2022-10-28T21:45:42.959Z,9.90
2022-10-28T21:48:44.686Z,9.83
2022-10-28T21:51:46.231Z,9.84
2022-10-28T21:54:47.753Z,9.80
2022-10-28T21:57:49.277Z,9.78
2022-10-28T22:00:50.917Z,9.75
2022-10-28T22:03:54.467Z,9.75
2022-10-28T22:06:56.037Z,9.79
2022-10-28T22:09:57.765Z,9.80
2022-10-28T22:12:59.282Z,9.84
2022-10-28T22:16:01.575Z,9.91
2022-10-28T22:19:04.267Z,10.01
2022-10-28T22:22:05.872Z,10.06
2022-10-28T22:25:09.519Z,10.11
2022-10-28T22:28:12.212Z,10.16
2022-10-28T22:31:14.900Z,10.19
2022-10-28T22:34:16.464Z,10.16
2022-10-28T22:37:18.650Z,10.09
2022-10-28T22:40:20.195Z,10.00
2022-10-28T22:43:21.719Z,10.03
2022-10-28T22:46:23.808Z,10.09
2022-10-28T22:49:25.340Z,10.16
2022-10-28T22:52:26.871Z,10.25
2022-10-28T22:55:28.404Z,10.34
2022-10-28T22:58:30.038Z,10.40
2022-10-28T23:01:31.817Z,10.35
2022-10-28T23:04:33.583Z,10.29
2022-10-28T23:07:35.186Z,10.26
2022-10-28T23:10:36.798Z,10.22
2022-10-28T23:16:44.953Z,10.04
2022-10-28T23:19:46.494Z,9.95
2022-10-28T23:22:48.072Z,9.86
2022-10-28T23:25:53.075Z,9.74
2022-10-28T23:28:55.647Z,9.64
2022-10-28T23:31:57.223Z,9.59
2022-10-28T23:34:58.851Z,9.57
2022-10-28T23:38:00.726Z,9.53
2022-10-28T23:41:05.381Z,9.52
2022-10-28T23:44:06.947Z,9.52
2022-10-28T23:47:08.636Z,9.54
2022-10-28T23:50:11.081Z,9.55
2022-10-28T23:53:12.756Z,9.57
2022-10-28T23:56:14.463Z,9.62
2022-10-28T23:59:21.086Z,9.59
